Craigville, Indiana
Current Conditions -  °F | °C
As of 8:54 PM on Saturday 25 Oct 2014 (Local Time) from KFWA Reporting Station
Few Clouds Few Clouds  
Wind Chill: 55°   Ceiling: Unl
Heat Index: 55°   Visibility: 10mi
Dew Point: 38°   Wind: 8mph
Humidity: 53%   Direction: 280°W
Pressure: 29.88"   Gusts: NA
Location:  40.78°N, 85.09°W
Report Text: KFWA 260054Z 28007KT 10SM FEW250 13/03 A2988 RMK AO2 SLP119 T01280033
Loading
Personal Weather Stations






























Interactive Weather Map
Tropical Storm Tracking
New forecast layout! Learn more

10-Day Weather Forecast

Advertisements
Track Severe Weather on mobile